createdAt,value
2017-11-11T00:00:04.143Z,5
2017-11-11T00:05:03.564Z,6
2017-11-11T00:10:02.726Z,4
2017-11-11T00:15:03.260Z,5
2017-11-11T00:20:02.793Z,4
2017-11-11T00:25:03.473Z,2
2017-11-11T00:30:03.114Z,3
2017-11-11T00:35:02.668Z,2
2017-11-11T00:40:03.276Z,3
2017-11-11T00:45:03.010Z,5
2017-11-11T00:50:02.657Z,12
2017-11-11T00:55:03.105Z,8
2017-11-11T01:00:03.558Z,7
2017-11-11T01:05:03.287Z,6
2017-11-11T01:10:03.109Z,5
2017-11-11T01:15:02.720Z,6
2017-11-11T01:20:03.489Z,5
2017-11-11T01:25:03.021Z,6
2017-11-11T01:30:02.719Z,6
2017-11-11T01:35:03.276Z,4
2017-11-11T01:40:02.982Z,5
2017-11-11T01:45:02.689Z,3
2017-11-11T01:50:03.289Z,2
2017-11-11T01:55:02.873Z,2
2017-11-11T02:00:03.382Z,2
2017-11-11T02:05:03.059Z,2
2017-11-11T02:10:02.887Z,2
2017-11-11T02:15:03.344Z,2
2017-11-11T02:20:02.872Z,4
2017-11-11T02:25:03.420Z,2
2017-11-11T02:30:03.125Z,7
2017-11-11T02:35:02.850Z,5
2017-11-11T02:40:03.573Z,4
2017-11-11T02:45:03.254Z,6
2017-11-11T02:50:02.981Z,6
2017-11-11T02:55:02.704Z,8
2017-11-11T03:00:03.428Z,6
2017-11-11T03:05:02.889Z,5
2017-11-11T03:10:02.707Z,7
2017-11-11T03:15:03.218Z,5
2017-11-11T03:20:02.929Z,5
2017-11-11T03:25:03.506Z,7
2017-11-11T03:30:03.229Z,6
2017-11-11T03:35:02.737Z,5
2017-11-11T03:40:03.217Z,3
2017-11-11T03:45:02.915Z,6
2017-11-11T03:50:03.477Z,3
2017-11-11T03:55:03.148Z,5
2017-11-11T04:00:02.696Z,8
2017-11-11T04:05:03.222Z,4
2017-11-11T04:10:02.923Z,3
2017-11-11T04:15:03.378Z,7
2017-11-11T04:20:02.989Z,4
2017-11-11T04:25:02.700Z,5
2017-11-11T04:30:03.354Z,3
2017-11-11T04:35:02.787Z,3
2017-11-11T04:40:03.373Z,4
2017-11-11T04:45:03.096Z,6
2017-11-11T04:50:02.763Z,5
2017-11-11T04:55:03.424Z,6
2017-11-11T05:00:03.217Z,5
2017-11-11T05:05:02.708Z,4
2017-11-11T05:10:03.639Z,3
2017-11-11T05:15:03.095Z,8
2017-11-11T05:20:02.801Z,6
2017-11-11T05:25:03.478Z,5
2017-11-11T05:30:02.933Z,5
2017-11-11T05:35:03.535Z,5
2017-11-11T05:40:03.072Z,3
2017-11-11T05:45:03.609Z,5
2017-11-11T05:50:03.100Z,2
2017-11-11T05:55:03.585Z,5
2017-11-11T06:00:03.363Z,6
2017-11-11T06:05:02.834Z,7
2017-11-11T06:10:03.338Z,4
2017-11-11T06:15:02.972Z,3
2017-11-11T06:20:02.617Z,9
2017-11-11T06:25:03.224Z,7
2017-11-11T06:30:02.718Z,10
2017-11-11T06:35:03.353Z,4
2017-11-11T06:40:03.112Z,6
2017-11-11T06:45:02.664Z,4
2017-11-11T06:50:03.172Z,6
2017-11-11T06:55:02.603Z,7
2017-11-11T07:00:03.052Z,8
2017-11-11T07:05:02.712Z,4
2017-11-11T07:10:03.273Z,6
2017-11-11T07:15:02.834Z,6
2017-11-11T07:20:03.520Z,9
2017-11-11T07:25:03.193Z,6
2017-11-11T07:30:02.896Z,5
2017-11-11T07:35:02.633Z,6
2017-11-11T07:40:03.165Z,7
2017-11-11T07:45:02.715Z,8
2017-11-11T07:50:03.318Z,11
2017-11-11T07:55:02.937Z,5
2017-11-11T08:00:03.768Z,5
2017-11-11T08:05:03.474Z,6
2017-11-11T08:10:03.025Z,11
2017-11-11T08:15:02.751Z,5
2017-11-11T08:20:03.363Z,7
2017-11-11T08:25:03.011Z,7
2017-11-11T08:30:02.700Z,10
2017-11-11T08:35:03.397Z,9
2017-11-11T08:40:02.991Z,6
2017-11-11T08:45:03.551Z,6
2017-11-11T08:50:03.219Z,6
2017-11-11T08:55:02.928Z,8
2017-11-11T09:00:03.572Z,5
2017-11-11T09:05:03.248Z,6
2017-11-11T09:10:02.972Z,7
2017-11-11T09:15:03.500Z,9
2017-11-11T09:20:03.056Z,10
2017-11-11T09:25:03.619Z,6
2017-11-11T09:30:03.223Z,8
2017-11-11T09:35:02.886Z,5
2017-11-11T09:40:03.387Z,8
2017-11-11T09:45:03.103Z,3
2017-11-11T09:50:03.684Z,7
2017-11-11T09:55:03.212Z,5
2017-11-11T10:00:02.870Z,3
2017-11-11T10:05:02.645Z,3
2017-11-11T10:10:03.480Z,5
2017-11-11T10:15:03.121Z,7
2017-11-11T10:20:02.722Z,5
2017-11-11T10:25:03.349Z,9
2017-11-11T10:30:02.972Z,5
2017-11-11T10:35:03.555Z,4
2017-11-11T10:40:03.106Z,3
2017-11-11T10:45:02.629Z,9
2017-11-11T10:50:03.257Z,7
2017-11-11T10:55:02.809Z,4
2017-11-11T11:00:03.399Z,6
2017-11-11T11:05:03.027Z,4
2017-11-11T11:10:02.598Z,9
2017-11-11T11:15:03.287Z,5
2017-11-11T11:20:03.045Z,5
2017-11-11T11:25:03.615Z,3
2017-11-11T11:30:03.360Z,2
2017-11-11T11:35:03.112Z,6
2017-11-11T11:40:02.869Z,8
2017-11-11T11:45:03.440Z,3
2017-11-11T11:50:02.991Z,3
2017-11-11T11:55:02.637Z,5
2017-11-11T12:00:03.208Z,5
2017-11-11T12:05:02.939Z,4
2017-11-11T12:10:02.726Z,4
2017-11-11T12:15:03.436Z,2
2017-11-11T12:20:03.041Z,4
2017-11-11T12:25:02.705Z,2
2017-11-11T12:30:03.168Z,4
2017-11-11T12:35:02.743Z,3
2017-11-11T12:40:03.555Z,5
2017-11-11T12:45:03.265Z,4
2017-11-11T12:50:02.721Z,5
2017-11-11T12:55:03.308Z,3
2017-11-11T13:00:02.881Z,2
2017-11-11T13:05:02.659Z,3
2017-11-11T13:10:03.479Z,2
2017-11-11T13:15:02.998Z,2
2017-11-11T13:20:02.756Z,4
2017-11-11T13:25:03.416Z,2
2017-11-11T13:30:03.035Z,5
2017-11-11T13:35:02.810Z,4
2017-11-11T13:40:03.368Z,4
2017-11-11T13:45:02.966Z,7
2017-11-11T13:50:02.681Z,3
2017-11-11T13:55:03.250Z,5
2017-11-11T14:00:02.977Z,3
2017-11-11T14:05:02.632Z,3
2017-11-11T14:10:03.389Z,3
2017-11-11T14:15:03.145Z,8
2017-11-11T14:20:02.662Z,4
2017-11-11T14:25:03.300Z,2
2017-11-11T14:30:02.779Z,2
2017-11-11T14:35:03.486Z,3
2017-11-11T14:40:02.984Z,3
2017-11-11T14:45:03.591Z,3
2017-11-11T14:50:03.129Z,0
2017-11-11T14:55:02.617Z,3
2017-11-11T15:00:03.062Z,3
2017-11-11T15:05:03.610Z,2
2017-11-11T15:10:03.139Z,3
2017-11-11T15:15:02.633Z,1
2017-11-11T15:25:02.759Z,0
2017-11-11T15:30:03.338Z,1
2017-11-11T15:35:02.816Z,1
2017-11-11T15:40:03.541Z,0
2017-11-11T15:45:03.000Z,0
2017-11-11T15:50:02.740Z,1
2017-11-11T15:55:03.385Z,0
2017-11-11T16:00:03.155Z,0
2017-11-11T16:05:02.694Z,0
2017-11-11T16:10:03.515Z,0
2017-11-11T16:15:03.006Z,0
2017-11-11T16:20:03.573Z,0
2017-11-11T16:25:03.039Z,0
2017-11-11T16:30:03.631Z,0
2017-11-11T16:35:03.312Z,0
2017-11-11T16:40:02.911Z,0
2017-11-11T16:45:03.418Z,0
2017-11-11T16:50:03.151Z,0
2017-11-11T16:55:02.938Z,0
2017-11-11T17:00:03.529Z,0
2017-11-11T17:05:03.199Z,0
2017-11-11T17:10:02.808Z,2
2017-11-11T17:15:03.321Z,1
2017-11-11T17:20:02.859Z,2
2017-11-11T17:25:03.614Z,2
2017-11-11T17:30:03.323Z,3
2017-11-11T17:35:03.020Z,2
2017-11-11T17:40:02.852Z,2
2017-11-11T17:45:03.441Z,2
2017-11-11T17:50:03.166Z,1
2017-11-11T17:55:02.804Z,2
2017-11-11T18:00:03.511Z,2
2017-11-11T18:05:03.314Z,2
2017-11-11T18:10:03.079Z,0
2017-11-11T18:15:02.747Z,0
2017-11-11T18:20:03.444Z,0
2017-11-11T18:25:03.178Z,1
2017-11-11T18:30:02.834Z,2
2017-11-11T18:35:03.642Z,1
2017-11-11T18:40:03.383Z,3
2017-11-11T18:45:02.938Z,1
2017-11-11T18:50:02.681Z,0
2017-11-11T18:55:03.230Z,1
2017-11-11T19:00:02.751Z,0
2017-11-11T19:05:03.223Z,2
2017-11-11T19:10:03.006Z,0
2017-11-11T19:15:03.559Z,0
2017-11-11T19:20:03.166Z,1
2017-11-11T19:25:02.684Z,0
2017-11-11T19:30:03.364Z,0
2017-11-11T19:35:03.149Z,0
2017-11-11T19:40:02.721Z,0
2017-11-11T19:45:03.356Z,1
2017-11-11T19:50:02.912Z,0
2017-11-11T19:55:03.426Z,0
2017-11-11T20:00:02.867Z,0
2017-11-11T20:05:03.362Z,0
2017-11-11T20:10:03.163Z,0
2017-11-11T20:15:02.867Z,0
2017-11-11T20:20:02.643Z,0
2017-11-11T20:25:03.363Z,0
2017-11-11T20:30:03.016Z,2
2017-11-11T20:35:03.544Z,3
2017-11-11T20:40:03.167Z,0
2017-11-11T20:45:02.727Z,1
2017-11-11T20:50:03.323Z,0
2017-11-11T20:55:03.049Z,4
2017-11-11T21:00:03.561Z,1
2017-11-11T21:05:03.322Z,2
2017-11-11T21:10:03.030Z,2
2017-11-11T21:15:03.570Z,2
2017-11-11T21:20:03.225Z,0
2017-11-11T21:25:02.929Z,0
2017-11-11T21:30:03.467Z,3
2017-11-11T21:35:03.263Z,2
2017-11-11T21:40:02.788Z,2
2017-11-11T21:45:03.448Z,2
2017-11-11T21:50:03.088Z,2
2017-11-11T21:55:02.752Z,2
2017-11-11T22:00:03.645Z,0
2017-11-11T22:05:03.345Z,0
2017-11-11T22:10:03.061Z,2
2017-11-11T22:15:02.786Z,0
2017-11-11T22:20:03.299Z,0
2017-11-11T22:25:02.795Z,2
2017-11-11T22:30:03.531Z,2
2017-11-11T22:35:03.211Z,0
2017-11-11T22:40:02.953Z,1
2017-11-11T22:45:03.512Z,1
2017-11-11T22:50:03.283Z,3
2017-11-11T22:55:02.997Z,2
2017-11-11T23:00:02.683Z,2
2017-11-11T23:05:03.341Z,3
2017-11-11T23:10:02.958Z,2
2017-11-11T23:15:02.672Z,0
2017-11-11T23:20:03.284Z,1
2017-11-11T23:25:02.814Z,0
2017-11-11T23:30:03.508Z,0
2017-11-11T23:35:03.221Z,0
2017-11-11T23:40:03.017Z,2
2017-11-11T23:45:02.700Z,0
2017-11-11T23:50:03.282Z,0
2017-11-11T23:55:02.941Z,0
